sensor_id;sensor_type;location;lat;lon;timestamp;temperature;humidity
431;DHT22;202;48.764;9.172;2024-01-07T00:12:20;8.20;48.70
431;DHT22;202;48.764;9.172;2024-01-07T00:24:29;8.10;48.90
431;DHT22;202;48.764;9.172;2024-01-07T02:56:03;7.80;56.30
431;DHT22;202;48.764;9.172;2024-01-07T02:59:27;7.80;55.50
431;DHT22;202;48.764;9.172;2024-01-07T03:05:57;7.80;56.20
431;DHT22;202;48.764;9.172;2024-01-07T03:26:00;7.70;54.50
431;DHT22;202;48.764;9.172;2024-01-07T03:28:45;7.80;55.20
431;DHT22;202;48.764;9.172;2024-01-07T03:31:21;7.70;54.80
431;DHT22;202;48.764;9.172;2024-01-07T03:34:16;7.80;54.80
431;DHT22;202;48.764;9.172;2024-01-07T03:47:53;7.70;56.80
431;DHT22;202;48.764;9.172;2024-01-07T04:31:52;7.50;54.60
431;DHT22;202;48.764;9.172;2024-01-07T04:34:42;7.60;54.60
431;DHT22;202;48.764;9.172;2024-01-07T04:37:27;7.60;53.30
431;DHT22;202;48.764;9.172;2024-01-07T04:40:16;7.60;53.10
431;DHT22;202;48.764;9.172;2024-01-07T04:43:29;7.60;53.00
431;DHT22;202;48.764;9.172;2024-01-07T05:14:49;7.50;53.70
431;DHT22;202;48.764;9.172;2024-01-07T06:13:10;7.50;52.10
431;DHT22;202;48.764;9.172;2024-01-07T06:40:41;7.50;51.80
431;DHT22;202;48.764;9.172;2024-01-07T06:44:18;7.50;51.40
431;DHT22;202;48.764;9.172;2024-01-07T06:50:31;7.40;51.80
431;DHT22;202;48.764;9.172;2024-01-07T07:18:36;7.10;47.30
431;DHT22;202;48.764;9.172;2024-01-07T07:20:55;7.10;47.70
431;DHT22;202;48.764;9.172;2024-01-07T07:23:48;7.10;46.50
431;DHT22;202;48.764;9.172;2024-01-07T07:27:05;7.00;46.60
431;DHT22;202;48.764;9.172;2024-01-07T07:46:31;6.90;43.20
431;DHT22;202;48.764;9.172;2024-01-07T07:49:45;6.90;43.40
431;DHT22;202;48.764;9.172;2024-01-07T07:53:16;6.80;42.70
431;DHT22;202;48.764;9.172;2024-01-07T07:59:13;6.60;42.50
431;DHT22;202;48.764;9.172;2024-01-07T09:28:24;5.90;37.70
431;DHT22;202;48.764;9.172;2024-01-07T09:31:33;5.70;35.60
431;DHT22;202;48.764;9.172;2024-01-07T09:54:04;5.70;35.10
431;DHT22;202;48.764;9.172;2024-01-07T09:56:38;5.50;34.60
431;DHT22;202;48.764;9.172;2024-01-07T09:59:11;5.40;37.10
431;DHT22;202;48.764;9.172;2024-01-07T10:37:37;5.60;35.30
431;DHT22;202;48.764;9.172;2024-01-07T10:44:02;5.60;34.50
431;DHT22;202;48.764;9.172;2024-01-07T10:46:43;5.60;34.10
431;DHT22;202;48.764;9.172;2024-01-07T10:49:27;5.50;34.30
431;DHT22;202;48.764;9.172;2024-01-07T10:52:25;5.50;35.30
431;DHT22;202;48.764;9.172;2024-01-07T10:55:03;5.60;36.00
431;DHT22;202;48.764;9.172;2024-01-07T10:57:48;5.70;35.50
431;DHT22;202;48.764;9.172;2024-01-07T11:00:16;5.80;34.20
431;DHT22;202;48.764;9.172;2024-01-07T11:02:51;5.60;31.00
431;DHT22;202;48.764;9.172;2024-01-07T11:05:25;5.20;32.10
431;DHT22;202;48.764;9.172;2024-01-07T11:08:01;5.20;32.90
431;DHT22;202;48.764;9.172;2024-01-07T11:10:37;5.10;33.50
431;DHT22;202;48.764;9.172;2024-01-07T11:13:05;5.00;32.60
431;DHT22;202;48.764;9.172;2024-01-07T11:15:51;5.00;33.50
431;DHT22;202;48.764;9.172;2024-01-07T11:18:18;5.10;33.00
431;DHT22;202;48.764;9.172;2024-01-07T11:20:47;5.10;34.10
431;DHT22;202;48.764;9.172;2024-01-07T11:23:30;5.10;34.40
431;DHT22;202;48.764;9.172;2024-01-07T11:25:59;5.20;33.70
431;DHT22;202;48.764;9.172;2024-01-07T11:28:45;5.30;33.30
431;DHT22;202;48.764;9.172;2024-01-07T11:31:14;5.20;32.40
431;DHT22;202;48.764;9.172;2024-01-07T11:33:42;5.30;34.00
431;DHT22;202;48.764;9.172;2024-01-07T11:36:12;5.40;34.00
431;DHT22;202;48.764;9.172;2024-01-07T11:38:49;5.50;32.50
431;DHT22;202;48.764;9.172;2024-01-07T11:41:16;5.30;31.70
431;DHT22;202;48.764;9.172;2024-01-07T11:43:55;5.20;31.90
431;DHT22;202;48.764;9.172;2024-01-07T11:46:25;5.00;32.70
431;DHT22;202;48.764;9.172;2024-01-07T11:48:54;5.10;34.10
431;DHT22;202;48.764;9.172;2024-01-07T11:51:24;5.10;32.80
431;DHT22;202;48.764;9.172;2024-01-07T11:53:58;4.90;33.70
431;DHT22;202;48.764;9.172;2024-01-07T11:56:27;4.90;35.40
431;DHT22;202;48.764;9.172;2024-01-07T11:58:54;5.00;35.90
431;DHT22;202;48.764;9.172;2024-01-07T12:01:22;5.00;33.50
431;DHT22;202;48.764;9.172;2024-01-07T12:03:51;4.90;34.50
431;DHT22;202;48.764;9.172;2024-01-07T12:06:19;4.90;34.10
431;DHT22;202;48.764;9.172;2024-01-07T12:08:47;4.90;34.20
431;DHT22;202;48.764;9.172;2024-01-07T12:11:18;4.90;33.50
431;DHT22;202;48.764;9.172;2024-01-07T12:13:46;4.80;34.00
431;DHT22;202;48.764;9.172;2024-01-07T12:16:16;4.80;34.30
431;DHT22;202;48.764;9.172;2024-01-07T12:18:43;4.90;35.40
431;DHT22;202;48.764;9.172;2024-01-07T12:21:11;5.00;34.90
431;DHT22;202;48.764;9.172;2024-01-07T12:23:38;5.10;33.80
431;DHT22;202;48.764;9.172;2024-01-07T12:26:10;5.10;32.30
431;DHT22;202;48.764;9.172;2024-01-07T12:28:40;5.00;33.50
431;DHT22;202;48.764;9.172;2024-01-07T12:31:09;4.90;33.10
431;DHT22;202;48.764;9.172;2024-01-07T12:33:37;4.70;33.70
431;DHT22;202;48.764;9.172;2024-01-07T12:36:06;4.50;34.60
431;DHT22;202;48.764;9.172;2024-01-07T12:38:37;4.50;35.20
431;DHT22;202;48.764;9.172;2024-01-07T12:50:06;4.50;36.20
431;DHT22;202;48.764;9.172;2024-01-07T12:57:07;4.70;35.20
431;DHT22;202;48.764;9.172;2024-01-07T13:21:45;4.20;37.00
431;DHT22;202;48.764;9.172;2024-01-07T15:24:45;3.30;38.10
431;DHT22;202;48.764;9.172;2024-01-07T15:27:13;3.20;37.30
431;DHT22;202;48.764;9.172;2024-01-07T15:35:39;2.80;42.20
431;DHT22;202;48.764;9.172;2024-01-07T22:02:26;1.50;40.70
431;DHT22;202;48.764;9.172;2024-01-07T22:08:59;1.50;40.20
431;DHT22;202;48.764;9.172;2024-01-07T22:18:23;1.60;39.00
431;DHT22;202;48.764;9.172;2024-01-07T22:21:47;1.60;39.80
431;DHT22;202;48.764;9.172;2024-01-07T22:31:57;1.50;39.40
431;DHT22;202;48.764;9.172;2024-01-07T22:38:05;1.40;40.50
431;DHT22;202;48.764;9.172;2024-01-07T22:44:44;1.60;40.20
431;DHT22;202;48.764;9.172;2024-01-07T22:54:12;1.60;40.60
431;DHT22;202;48.764;9.172;2024-01-07T22:57:06;1.60;40.90
431;DHT22;202;48.764;9.172;2024-01-07T22:59:55;1.60;40.20
431;DHT22;202;48.764;9.172;2024-01-07T23:02:40;1.70;40.10
431;DHT22;202;48.764;9.172;2024-01-07T23:05:08;1.70;39.00
431;DHT22;202;48.764;9.172;2024-01-07T23:07:42;1.60;37.60
431;DHT22;202;48.764;9.172;2024-01-07T23:10:14;1.60;37.60
431;DHT22;202;48.764;9.172;2024-01-07T23:12:44;1.50;37.50
431;DHT22;202;48.764;9.172;2024-01-07T23:15:20;1.60;37.60
431;DHT22;202;48.764;9.172;2024-01-07T23:17:54;1.60;37.60
431;DHT22;202;48.764;9.172;2024-01-07T23:20:21;1.60;38.30
431;DHT22;202;48.764;9.172;2024-01-07T23:23:04;1.70;37.70
431;DHT22;202;48.764;9.172;2024-01-07T23:25:40;1.70;37.70
431;DHT22;202;48.764;9.172;2024-01-07T23:28:27;1.70;36.90
431;DHT22;202;48.764;9.172;2024-01-07T23:30:57;1.80;37.10
431;DHT22;202;48.764;9.172;2024-01-07T23:33:29;1.70;34.10
431;DHT22;202;48.764;9.172;2024-01-07T23:36:13;1.70;34.90
431;DHT22;202;48.764;9.172;2024-01-07T23:39:01;1.60;35.40
431;DHT22;202;48.764;9.172;2024-01-07T23:41:36;1.70;34.10
431;DHT22;202;48.764;9.172;2024-01-07T23:44:09;1.60;32.60
431;DHT22;202;48.764;9.172;2024-01-07T23:46:42;1.40;33.40
431;DHT22;202;48.764;9.172;2024-01-07T23:49:12;1.60;33.30
431;DHT22;202;48.764;9.172;2024-01-07T23:51:58;1.50;29.10
431;DHT22;202;48.764;9.172;2024-01-07T23:54:34;1.30;30.40
431;DHT22;202;48.764;9.172;2024-01-07T23:57:02;1.20;29.30
431;DHT22;202;48.764;9.172;2024-01-07T23:59:38;1.10;28.90
